Time;durP1;ratioP1;P1;durP2;ratioP2;P2;SDS_P1;SDS_P2;PMS_P1;PMS_P2;Temp;Humidity;BMP_temperature;BMP_pressure;BME280_temperature;BME280_humidity;BME280_pressure;Samples;Min_cycle;Max_cycle;Signal;HPM_P1;HPM_P2
2024/01/09 00:02:38;;;;;;;8.18;3.37;;;-4.70;99.90;;;;;;7367332;32;20500;-55
2024/01/09 00:06:40;;;;;;;9.35;3.75;;;-4.80;99.90;;;;;;7358526;32;20134;-56
2024/01/09 00:10:42;;;;;;;7.18;3.97;;;-4.70;99.90;;;;;;7359077;32;20354;-56
2024/01/09 00:14:44;;;;;;;10.73;3.72;;;-4.80;99.90;;;;;;7366181;32;20102;-57
2024/01/09 00:18:46;;;;;;;8.07;3.92;;;-4.80;99.90;;;;;;7358580;32;20110;-56
2024/01/09 00:22:48;;;;;;;9.15;3.97;;;-4.80;99.90;;;;;;7361511;32;20123;-56
2024/01/09 00:26:49;;;;;;;9.40;4.20;;;-4.80;99.90;;;;;;7361632;32;20258;-54
2024/01/09 00:30:52;;;;;;;7.55;4.28;;;-4.70;99.90;;;;;;7362603;32;20126;-55
2024/01/09 00:34:54;;;;;;;9.38;4.30;;;-4.80;99.90;;;;;;7360860;32;20258;-56
2024/01/09 00:38:55;;;;;;;6.97;3.30;;;-4.80;99.90;;;;;;7360968;32;20302;-56
2024/01/09 00:42:57;;;;;;;10.35;4.43;;;-4.70;99.90;;;;;;7361635;32;20686;-56
2024/01/09 00:46:59;;;;;;;8.27;4.07;;;-4.80;99.90;;;;;;7362066;32;20518;-55
2024/01/09 00:51:01;;;;;;;7.40;3.95;;;-4.80;99.90;;;;;;7362132;32;20129;-56
2024/01/09 00:55:03;;;;;;;10.07;4.18;;;-4.80;99.90;;;;;;7361963;32;20131;-55
2024/01/09 00:59:05;;;;;;;6.85;3.37;;;-4.90;99.90;;;;;;7360422;32;20749;-56
2024/01/09 01:03:06;;;;;;;6.93;3.80;;;-4.90;99.90;;;;;;7364215;32;20103;-56
2024/01/09 01:07:09;;;;;;;8.38;4.03;;;-4.90;99.90;;;;;;7364033;32;20141;-56
2024/01/09 01:11:10;;;;;;;8.48;3.75;;;-4.90;99.90;;;;;;7362618;32;20212;-56
2024/01/09 01:15:12;;;;;;;8.43;3.58;;;-5.00;99.90;;;;;;7369253;32;20118;-57
2024/01/09 01:19:14;;;;;;;7.43;3.78;;;-5.00;99.90;;;;;;7367453;32;20122;-55
2024/01/09 01:23:16;;;;;;;9.35;3.62;;;-5.00;99.90;;;;;;7364844;32;20226;-55
2024/01/09 01:27:18;;;;;;;9.32;3.60;;;-5.00;99.90;;;;;;7363663;32;20150;-56
2024/01/09 01:31:19;;;;;;;5.80;3.08;;;-5.00;99.90;;;;;;7369938;32;20142;-55
2024/01/09 01:35:21;;;;;;;7.82;3.45;;;-5.00;99.90;;;;;;7366755;32;20282;-55
2024/01/09 01:39:23;;;;;;;8.88;3.80;;;-5.10;99.90;;;;;;7362643;32;20523;-56
2024/01/09 01:43:24;;;;;;;6.78;3.50;;;-5.10;99.90;;;;;;7365560;32;20194;-56
2024/01/09 01:47:26;;;;;;;8.27;4.10;;;-5.10;99.90;;;;;;7364455;32;20560;-56
2024/01/09 01:51:28;;;;;;;8.95;4.18;;;-5.10;99.90;;;;;;7367151;32;20157;-57
2024/01/09 01:55:31;;;;;;;7.32;3.30;;;-5.10;99.90;;;;;;7362137;32;20131;-55
2024/01/09 01:59:37;;;;;;;8.48;3.67;;;-5.10;99.90;;;;;;7361995;32;20158;-55
2024/01/09 02:03:39;;;;;;;5.95;3.08;;;-5.20;99.90;;;;;;7362322;32;20151;-55
2024/01/09 02:07:45;;;;;;;7.78;2.58;;;-5.20;99.90;;;;;;7358907;32;20257;-56
2024/01/09 02:11:48;;;;;;;6.70;3.50;;;-5.20;99.90;;;;;;7362982;32;20110;-56
2024/01/09 02:15:50;;;;;;;7.90;3.20;;;-5.20;99.90;;;;;;7354953;32;20215;-56
2024/01/09 02:19:52;;;;;;;6.53;3.35;;;-5.20;99.90;;;;;;7359831;32;20261;-56
2024/01/09 02:23:53;;;;;;;6.37;2.97;;;-5.20;99.90;;;;;;7372120;32;20175;-56
2024/01/09 02:28:04;;;;;;;9.57;3.42;;;-5.20;99.90;;;;;;7363809;32;20103;-57
2024/01/09 02:32:06;;;;;;;7.25;2.85;;;-5.20;99.90;;;;;;7360638;32;20360;-56
2024/01/09 02:36:08;;;;;;;6.57;3.05;;;-5.30;99.90;;;;;;7363477;32;20147;-56
2024/01/09 02:40:10;;;;;;;6.57;3.45;;;-5.30;99.90;;;;;;7362690;32;20297;-55
2024/01/09 02:44:12;;;;;;;6.72;3.17;;;-5.30;99.90;;;;;;7359566;32;20218;-55
2024/01/09 02:48:13;;;;;;;6.10;3.15;;;-5.20;99.90;;;;;;7363655;32;20129;-56
2024/01/09 02:52:16;;;;;;;7.07;2.87;;;-5.30;99.90;;;;;;7371194;32;20509;-55
2024/01/09 02:56:18;;;;;;;7.07;3.47;;;-5.30;99.90;;;;;;7358746;32;20103;-56
2024/01/09 03:00:20;;;;;;;7.65;3.28;;;-5.40;99.90;;;;;;7364509;32;20099;-57
2024/01/09 03:04:22;;;;;;;6.90;3.15;;;-5.40;99.90;;;;;;7357855;32;20903;-56
2024/01/09 03:08:23;;;;;;;5.37;2.90;;;-5.20;99.90;;;;;;7372089;32;20182;-56
2024/01/09 03:12:25;;;;;;;6.10;3.35;;;-5.40;99.90;;;;;;7358712;32;20144;-56
2024/01/09 03:16:27;;;;;;;6.65;2.90;;;-5.40;99.90;;;;;;7356085;32;20229;-57
2024/01/09 03:20:29;;;;;;;7.90;3.65;;;-5.40;99.90;;;;;;7356868;32;20119;-56
2024/01/09 03:24:31;;;;;;;7.45;2.62;;;-5.40;99.90;;;;;;7368827;32;20225;-56
2024/01/09 03:28:32;;;;;;;5.78;2.90;;;-5.40;99.90;;;;;;7361669;32;20528;-56
2024/01/09 03:32:34;;;;;;;8.45;3.28;;;-5.40;99.90;;;;;;7355041;32;20103;-56
2024/01/09 03:36:38;;;;;;;6.53;3.20;;;-5.50;99.90;;;;;;7360064;32;20131;-56
2024/01/09 03:40:40;;;;;;;7.75;3.05;;;-5.50;99.90;;;;;;7363746;32;20154;-57
2024/01/09 03:44:41;;;;;;;7.45;3.62;;;-5.50;99.90;;;;;;7361620;32;20231;-56
2024/01/09 03:48:43;;;;;;;7.20;3.40;;;-5.40;99.90;;;;;;7370448;32;20103;-55
2024/01/09 03:52:45;;;;;;;7.32;3.47;;;-5.50;99.90;;;;;;7365897;32;20122;-55
2024/01/09 03:56:47;;;;;;;7.28;3.50;;;-5.50;99.90;;;;;;7353348;32;20187;-56
2024/01/09 04:00:48;;;;;;;8.70;3.60;;;-5.50;99.90;;;;;;7367249;32;20229;-57
2024/01/09 04:04:50;;;;;;;7.45;3.45;;;-5.50;99.90;;;;;;7355359;32;20207;-55
2024/01/09 04:08:52;;;;;;;7.80;2.95;;;-5.60;99.90;;;;;;7362335;32;20659;-56
2024/01/09 04:12:54;;;;;;;8.65;3.83;;;-5.50;99.90;;;;;;7352791;32;20111;-56
2024/01/09 04:16:56;;;;;;;7.47;3.62;;;-5.50;99.90;;;;;;7361556;32;20535;-56
2024/01/09 04:20:58;;;;;;;7.85;3.25;;;-5.50;99.90;;;;;;7369040;32;20103;-56
2024/01/09 04:24:59;;;;;;;5.93;3.35;;;-5.60;99.90;;;;;;7360195;32;20130;-55
2024/01/09 04:29:01;;;;;;;8.45;3.47;;;-5.60;99.90;;;;;;7358436;32;20126;-57
2024/01/09 04:33:03;;;;;;;7.97;3.03;;;-5.60;99.90;;;;;;7357589;32;20160;-56
2024/01/09 04:37:05;;;;;;;7.97;3.33;;;-5.60;99.90;;;;;;7349372;32;20312;-56
2024/01/09 04:41:06;;;;;;;7.65;3.10;;;-5.60;99.90;;;;;;7361341;32;20127;-56
2024/01/09 04:45:09;;;;;;;6.40;2.92;;;-5.60;99.90;;;;;;7357577;32;20095;-56
2024/01/09 04:49:10;;;;;;;5.90;3.50;;;-5.50;99.90;;;;;;7355679;32;20157;-57
2024/01/09 04:53:12;;;;;;;5.47;3.35;;;-5.50;99.90;;;;;;7362234;32;20198;-57
2024/01/09 04:57:14;;;;;;;7.95;3.30;;;-5.50;99.90;;;;;;7359230;32;20125;-56
2024/01/09 05:01:16;;;;;;;6.95;3.87;;;-5.60;99.90;;;;;;7362339;32;20164;-56
2024/01/09 05:05:17;;;;;;;6.22;3.08;;;-5.60;99.90;;;;;;7364109;32;20258;-56
2024/01/09 05:09:19;;;;;;;7.70;3.47;;;-5.70;99.90;;;;;;7360598;32;20095;-56
2024/01/09 05:13:21;;;;;;;5.70;2.85;;;-5.70;99.90;;;;;;7356346;32;20155;-56
2024/01/09 05:17:23;;;;;;;8.43;3.83;;;-5.70;99.90;;;;;;7365203;32;20647;-58
2024/01/09 05:21:25;;;;;;;6.35;3.25;;;-5.70;99.90;;;;;;7360690;32;20103;-55
2024/01/09 05:25:26;;;;;;;8.75;3.87;;;-5.70;99.90;;;;;;7365699;32;20502;-55
2024/01/09 05:29:28;;;;;;;8.57;3.28;;;-5.70;99.90;;;;;;7358994;32;20916;-56
2024/01/09 05:33:31;;;;;;;6.80;3.35;;;-5.70;99.90;;;;;;7362690;32;20107;-56
2024/01/09 05:37:34;;;;;;;9.82;3.72;;;-5.60;99.90;;;;;;7358038;32;20307;-58
2024/01/09 05:41:35;;;;;;;8.50;3.20;;;-5.70;99.90;;;;;;7357657;32;20151;-56
2024/01/09 05:45:37;;;;;;;12.10;3.90;;;-5.70;99.90;;;;;;7350749;32;20135;-58
2024/01/09 05:49:39;;;;;;;5.47;3.45;;;-5.70;99.90;;;;;;7363351;32;20134;-56
2024/01/09 05:53:41;;;;;;;6.45;3.78;;;-5.70;99.90;;;;;;7362929;32;20114;-58
2024/01/09 05:57:43;;;;;;;10.43;4.15;;;-5.70;99.90;;;;;;7368413;32;20181;-56
2024/01/09 06:01:44;;;;;;;6.12;3.15;;;-5.80;99.90;;;;;;7359873;32;20108;-57
2024/01/09 06:05:46;;;;;;;7.55;3.62;;;-5.70;99.90;;;;;;7360229;32;20199;-57
2024/01/09 06:09:48;;;;;;;8.07;3.45;;;-5.80;99.90;;;;;;7370680;32;20122;-56
2024/01/09 06:13:50;;;;;;;10.35;3.70;;;-5.80;99.90;;;;;;7356892;32;20805;-56
2024/01/09 06:17:53;;;;;;;7.50;3.72;;;-5.70;99.90;;;;;;7365398;32;20349;-57
2024/01/09 06:21:56;;;;;;;9.02;3.62;;;-5.80;99.90;;;;;;7356806;32;20134;-55
2024/01/09 06:25:57;;;;;;;6.87;3.60;;;-5.90;99.90;;;;;;7355440;32;20146;-56
2024/01/09 06:29:59;;;;;;;7.97;3.90;;;-5.90;99.90;;;;;;7359410;32;20129;-56
2024/01/09 06:34:01;;;;;;;7.28;3.75;;;-5.90;99.90;;;;;;7354207;32;20115;-55
2024/01/09 06:38:03;;;;;;;8.95;3.97;;;-5.90;99.90;;;;;;7360084;32;20607;-55
2024/01/09 06:42:05;;;;;;;10.25;4.10;;;-5.90;99.90;;;;;;7354891;32;20188;-56
2024/01/09 06:46:08;;;;;;;7.90;3.87;;;-5.90;99.90;;;;;;7363152;32;20154;-56
2024/01/09 06:50:10;;;;;;;10.88;4.15;;;-5.70;99.90;;;;;;7354508;32;20569;-55
2024/01/09 06:54:30;;;;;;;7.35;3.50;;;-5.90;99.90;;;;;;7354846;32;20135;-55
2024/01/09 06:58:32;;;;;;;10.68;4.35;;;-5.90;99.90;;;;;;7352725;32;20187;-57
2024/01/09 07:02:34;;;;;;;11.82;5.57;;;-5.90;99.90;;;;;;7362578;32;20095;-56
2024/01/09 07:06:36;;;;;;;11.02;3.87;;;-6.00;99.90;;;;;;7358956;32;20179;-57
2024/01/09 07:10:38;;;;;;;8.85;5.15;;;-6.00;99.90;;;;;;7355149;32;20152;-56
2024/01/09 07:14:40;;;;;;;12.63;5.50;;;-6.00;99.90;;;;;;7353675;32;20725;-56
2024/01/09 07:18:42;;;;;;;12.88;6.93;;;-6.00;99.90;;;;;;7357654;32;20111;-56
2024/01/09 07:22:43;;;;;;;15.73;7.70;;;-6.10;99.90;;;;;;7360282;32;20625;-57
2024/01/09 07:26:49;;;;;;;13.40;6.15;;;-6.00;99.90;;;;;;7352565;32;20583;-56
2024/01/09 07:30:52;;;;;;;11.95;4.65;;;-5.90;99.90;;;;;;7352302;32;20154;-57
2024/01/09 07:34:54;;;;;;;8.93;4.57;;;-6.00;99.90;;;;;;7359210;32;20261;-58
2024/01/09 07:38:57;;;;;;;9.18;4.20;;;-6.10;99.90;;;;;;7352351;32;20242;-58
2024/01/09 07:43:00;;;;;;;11.10;4.60;;;-6.10;99.90;;;;;;7359417;32;20121;-58
2024/01/09 07:47:02;;;;;;;9.38;4.45;;;-6.10;99.90;;;;;;7355838;32;20098;-58
2024/01/09 07:51:04;;;;;;;7.85;3.90;;;-6.00;99.90;;;;;;7364105;32;20210;-58
2024/01/09 07:55:06;;;;;;;8.95;4.30;;;-6.00;99.90;;;;;;7359765;32;20167;-57
2024/01/09 07:59:08;;;;;;;6.37;3.92;;;-6.00;99.90;;;;;;7358449;32;20130;-59
2024/01/09 08:03:09;;;;;;;8.43;4.07;;;-5.90;99.90;;;;;;7358852;32;20251;-57
2024/01/09 08:07:11;;;;;;;8.95;4.12;;;-6.00;99.90;;;;;;7354987;32;20274;-57
2024/01/09 08:11:13;;;;;;;9.30;4.30;;;-6.00;99.90;;;;;;7349708;32;20119;-58
2024/01/09 08:15:15;;;;;;;8.13;4.20;;;-6.00;99.90;;;;;;7356101;32;20133;-58
2024/01/09 08:19:17;;;;;;;11.93;4.80;;;-6.00;99.90;;;;;;7360074;32;20524;-57
2024/01/09 08:23:19;;;;;;;7.40;3.67;;;-5.90;99.90;;;;;;7357869;32;20291;-57
2024/01/09 08:27:21;;;;;;;9.57;4.37;;;-5.90;99.90;;;;;;7359505;32;20134;-57
2024/01/09 08:31:22;;;;;;;10.25;4.18;;;-5.90;99.90;;;;;;7358844;32;20127;-57
2024/01/09 08:35:24;;;;;;;7.68;4.07;;;-5.80;99.90;;;;;;7357426;32;20293;-57
2024/01/09 08:39:26;;;;;;;11.05;4.30;;;-5.80;99.90;;;;;;7354787;32;20115;-58
2024/01/09 08:43:28;;;;;;;10.55;4.65;;;-5.80;99.90;;;;;;7352523;32;20121;-58
2024/01/09 08:47:30;;;;;;;9.38;4.22;;;-5.70;99.90;;;;;;7357207;32;20214;-58
2024/01/09 08:51:32;;;;;;;10.07;4.95;;;-5.60;99.90;;;;;;7354940;32;20126;-58
2024/01/09 08:55:34;;;;;;;11.68;4.85;;;-5.60;99.90;;;;;;7362766;32;20224;-58
2024/01/09 08:59:36;;;;;;;9.00;4.32;;;-5.60;99.90;;;;;;7361846;32;20138;-58
2024/01/09 09:03:38;;;;;;;9.30;4.35;;;-5.50;99.90;;;;;;7363836;32;20247;-57
2024/01/09 09:07:39;;;;;;;9.35;3.83;;;-5.50;99.90;;;;;;7360087;32;20222;-58
2024/01/09 09:11:42;;;;;;;9.45;4.28;;;-5.40;99.90;;;;;;7356758;32;20126;-57
2024/01/09 09:15:44;;;;;;;8.52;4.20;;;-5.30;99.90;;;;;;7361254;32;20278;-57
2024/01/09 09:19:46;;;;;;;11.00;4.87;;;-5.30;99.90;;;;;;7360968;32;20421;-58
2024/01/09 09:23:47;;;;;;;9.38;4.35;;;-5.30;99.90;;;;;;7362252;32;20133;-57
2024/01/09 09:27:49;;;;;;;10.93;4.20;;;-5.20;99.90;;;;;;7367707;32;20121;-54
2024/01/09 09:31:51;;;;;;;11.27;5.45;;;-5.10;99.90;;;;;;7364589;32;20131;-57
2024/01/09 09:35:53;;;;;;;14.00;5.72;;;-5.00;99.90;;;;;;7368713;32;20252;-57
2024/01/09 09:39:55;;;;;;;18.02;6.28;;;-4.90;99.90;;;;;;7366153;32;20107;-58
2024/01/09 09:43:58;;;;;;;10.18;4.78;;;-4.90;99.90;;;;;;7367160;32;20118;-57
2024/01/09 09:48:01;;;;;;;9.93;4.40;;;-4.70;99.90;;;;;;7365032;32;20131;-57
2024/01/09 09:52:04;;;;;;;9.98;4.70;;;-4.70;99.90;;;;;;7356863;32;20142;-57
2024/01/09 09:56:07;;;;;;;8.23;4.00;;;-4.60;99.90;;;;;;7362201;32;20164;-57
2024/01/09 10:00:09;;;;;;;9.77;4.65;;;-4.50;99.90;;;;;;7369115;32;20209;-56
2024/01/09 10:04:24;;;;;;;8.73;4.60;;;-4.50;99.90;;;;;;7365519;32;20237;-57
2024/01/09 10:08:28;;;;;;;10.90;4.90;;;-4.40;99.90;;;;;;7368642;32;20474;-57
2024/01/09 10:12:30;;;;;;;7.50;3.87;;;-4.30;99.90;;;;;;7359156;32;20133;-56
2024/01/09 10:16:48;;;;;;;8.60;4.28;;;-4.30;99.90;;;;;;7367489;32;20511;-55
2024/01/09 10:20:50;;;;;;;7.97;4.47;;;-4.20;99.90;;;;;;7357022;32;20250;-55
2024/01/09 10:24:52;;;;;;;8.07;3.80;;;-4.20;99.90;;;;;;7365245;32;20166;-61
2024/01/09 10:28:58;;;;;;;7.20;3.80;;;-4.10;99.90;;;;;;7370930;32;20191;-58
2024/01/09 10:33:00;;;;;;;7.20;3.65;;;-3.90;99.90;;;;;;7360036;32;20230;-56
2024/01/09 10:37:08;;;;;;;10.15;4.28;;;-3.90;99.90;;;;;;7359534;32;20216;-57
2024/01/09 10:41:14;;;;;;;9.00;4.20;;;-3.80;99.90;;;;;;7365774;32;20100;-57
2024/01/09 10:45:19;;;;;;;6.93;3.78;;;-3.70;99.90;;;;;;7359375;32;20130;-56
2024/01/09 10:49:22;;;;;;;7.20;3.83;;;-3.50;99.90;;;;;;7356247;32;20222;-57
2024/01/09 10:53:26;;;;;;;7.82;3.83;;;-3.50;99.90;;;;;;7368201;32;20202;-58
2024/01/09 10:57:29;;;;;;;7.50;4.00;;;-3.50;99.90;;;;;;7366938;32;20107;-55
2024/01/09 11:01:31;;;;;;;11.73;5.93;;;-3.40;99.90;;;;;;7363388;32;20631;-58
2024/01/09 11:05:33;;;;;;;8.02;4.55;;;-3.40;99.90;;;;;;7364496;32;20154;-58
2024/01/09 11:09:38;;;;;;;8.05;3.80;;;-3.20;99.90;;;;;;7365277;32;20251;-57
2024/01/09 11:13:46;;;;;;;6.20;3.15;;;-3.20;99.90;;;;;;7356380;32;20103;-58
2024/01/09 11:17:54;;;;;;;6.53;3.37;;;-3.10;99.90;;;;;;7355340;32;20127;-57
2024/01/09 11:21:55;;;;;;;7.00;3.50;;;-3.10;99.90;;;;;;7367753;32;20266;-57
2024/01/09 11:25:59;;;;;;;7.07;3.40;;;-3.00;99.90;;;;;;7368189;32;20122;-58
2024/01/09 11:30:01;;;;;;;7.22;3.65;;;-3.00;99.90;;;;;;7365887;32;20151;-59
2024/01/09 11:34:05;;;;;;;5.97;3.25;;;-2.80;99.90;;;;;;7367362;32;20102;-58
2024/01/09 11:38:09;;;;;;;7.80;3.78;;;-2.80;99.90;;;;;;7365398;32;20176;-57
2024/01/09 11:42:12;;;;;;;7.65;3.85;;;-2.70;99.90;;;;;;7359910;32;20127;-57
2024/01/09 11:46:15;;;;;;;6.85;3.62;;;-2.70;99.90;;;;;;7363436;32;20137;-57
2024/01/09 11:50:17;;;;;;;6.95;3.22;;;-2.70;99.90;;;;;;7365404;32;20127;-57
2024/01/09 11:54:19;;;;;;;6.95;3.45;;;-2.60;99.90;;;;;;7369323;32;20614;-57
2024/01/09 11:58:21;;;;;;;6.55;3.05;;;-2.50;99.90;;;;;;7362027;32;20143;-57
2024/01/09 12:02:23;;;;;;;6.60;3.25;;;-2.50;99.90;;;;;;7359329;32;20235;-59
2024/01/09 12:06:29;;;;;;;7.12;3.33;;;-2.40;99.90;;;;;;7360434;32;20232;-58
2024/01/09 12:10:31;;;;;;;6.40;3.10;;;-2.40;99.90;;;;;;7364081;32;20122;-56
2024/01/09 12:14:35;;;;;;;6.40;3.25;;;-2.30;99.90;;;;;;7371252;32;20104;-58
2024/01/09 12:18:56;;;;;;;7.35;3.28;;;-2.20;99.90;;;;;;7367025;32;20176;-57
2024/01/09 12:22:59;;;;;;;6.68;3.28;;;-2.10;99.90;;;;;;7369129;32;20107;-57
2024/01/09 12:27:01;;;;;;;5.97;3.45;;;-2.10;99.90;;;;;;7363807;32;20143;-57
2024/01/09 12:31:05;;;;;;;6.78;2.92;;;-2.10;99.90;;;;;;7369855;32;20416;-57
2024/01/09 12:35:07;;;;;;;5.45;3.12;;;-2.00;99.90;;;;;;7363135;32;20115;-58
2024/01/09 12:39:12;;;;;;;6.78;2.70;;;-1.90;99.90;;;;;;7357247;32;20774;-57
2024/01/09 12:43:16;;;;;;;6.70;2.92;;;-1.80;99.90;;;;;;7356212;32;20110;-57
2024/01/09 12:47:18;;;;;;;5.22;2.80;;;-1.70;99.90;;;;;;7361136;32;20539;-57
2024/01/09 12:51:20;;;;;;;4.95;2.75;;;-1.70;99.90;;;;;;7359612;32;20129;-57
2024/01/09 12:55:22;;;;;;;5.10;2.30;;;-1.70;99.90;;;;;;7358794;32;20095;-56
2024/01/09 12:59:26;;;;;;;6.10;2.87;;;-1.70;99.90;;;;;;7365615;32;20321;-57
2024/01/09 13:03:28;;;;;;;4.47;2.55;;;-1.60;99.90;;;;;;7356464;32;20178;-56
2024/01/09 13:07:30;;;;;;;6.45;2.47;;;-1.60;99.90;;;;;;7368341;32;20111;-57
2024/01/09 13:11:32;;;;;;;6.05;2.85;;;-1.60;99.90;;;;;;7364915;32;20227;-57
2024/01/09 13:15:33;;;;;;;7.53;3.05;;;-1.50;99.90;;;;;;7360589;32;20102;-55
2024/01/09 13:19:35;;;;;;;5.53;2.50;;;-1.40;99.90;;;;;;7359204;32;20295;-55
2024/01/09 13:23:37;;;;;;;4.95;2.67;;;-1.40;99.90;;;;;;7363779;32;20563;-55
2024/01/09 13:27:52;;;;;;;4.80;2.83;;;-1.30;99.90;;;;;;7370966;32;20143;-54
2024/01/09 13:31:54;;;;;;;6.60;2.85;;;-1.30;99.90;;;;;;7364568;32;20556;-57
2024/01/09 13:35:56;;;;;;;5.50;2.45;;;-1.20;99.90;;;;;;7367842;32;20213;-58
2024/01/09 13:39:58;;;;;;;6.87;3.80;;;-1.10;99.90;;;;;;7371344;32;20736;-58
2024/01/09 13:44:00;;;;;;;5.47;3.08;;;-1.10;99.90;;;;;;7361174;32;20103;-58
2024/01/09 13:48:02;;;;;;;6.05;3.00;;;-0.80;99.70;;;;;;7360773;32;20145;-59
2024/01/09 13:52:05;;;;;;;4.70;2.62;;;-0.90;99.30;;;;;;7366959;32;20163;-57
2024/01/09 13:56:06;;;;;;;4.95;2.22;;;-1.00;98.60;;;;;;7360825;32;20209;-58
2024/01/09 14:00:10;;;;;;;5.03;2.50;;;-1.00;98.60;;;;;;7363953;32;20190;-57
2024/01/09 14:04:15;;;;;;;6.97;2.53;;;-1.10;99.80;;;;;;7362409;32;20338;-57
2024/01/09 14:08:17;;;;;;;4.57;2.40;;;-1.00;97.90;;;;;;7361878;32;20210;-56
2024/01/09 14:12:20;;;;;;;5.05;2.40;;;-1.00;98.10;;;;;;7357728;32;20123;-57
2024/01/09 14:16:22;;;;;;;5.85;2.90;;;-0.80;97.80;;;;;;7364800;32;20581;-57
2024/01/09 14:20:27;;;;;;;5.90;2.42;;;-0.50;96.30;;;;;;7357538;32;20244;-58
2024/01/09 14:24:29;;;;;;;6.45;2.65;;;-0.40;95.50;;;;;;7365775;32;20102;-58
2024/01/09 14:28:31;;;;;;;6.50;2.75;;;-0.30;95.50;;;;;;7356416;32;20190;-58
2024/01/09 14:32:33;;;;;;;5.93;2.50;;;-0.30;95.40;;;;;;7361784;32;20107;-57
2024/01/09 14:36:37;;;;;;;6.62;2.58;;;-0.60;93.70;;;;;;7368618;32;20103;-58
2024/01/09 14:40:39;;;;;;;5.45;2.45;;;-0.80;95.10;;;;;;7365215;32;20195;-58
2024/01/09 14:44:41;;;;;;;5.85;2.47;;;-0.90;96.00;;;;;;7363300;32;20115;-59
2024/01/09 14:48:43;;;;;;;4.22;2.50;;;-1.00;96.00;;;;;;7364190;32;20108;-58
2024/01/09 14:52:44;;;;;;;4.43;2.30;;;-1.10;95.40;;;;;;7366074;32;20493;-56
2024/01/09 14:56:49;;;;;;;4.50;2.67;;;-1.20;96.00;;;;;;7362599;32;20209;-59
2024/01/09 15:00:56;;;;;;;6.22;2.85;;;-1.30;96.40;;;;;;7368778;32;20199;-58
2024/01/09 15:04:58;;;;;;;4.87;2.65;;;-1.30;96.80;;;;;;7367468;32;20131;-58
2024/01/09 15:09:00;;;;;;;4.22;2.33;;;-1.30;96.60;;;;;;7363908;32;20103;-57
2024/01/09 15:13:02;;;;;;;6.55;2.33;;;-1.40;96.70;;;;;;7365310;32;20252;-57
2024/01/09 15:17:04;;;;;;;4.35;2.35;;;-1.40;97.40;;;;;;7364044;32;20218;-57
2024/01/09 15:21:06;;;;;;;7.37;2.85;;;-1.40;96.50;;;;;;7362750;32;20186;-58
2024/01/09 15:25:09;;;;;;;6.53;3.12;;;-1.40;96.10;;;;;;7359106;32;20155;-58
2024/01/09 15:29:11;;;;;;;5.72;2.47;;;-1.50;98.90;;;;;;7366036;32;20125;-58
2024/01/09 15:33:13;;;;;;;5.78;2.53;;;-1.60;96.70;;;;;;7368907;32;20190;-58
2024/01/09 15:37:15;;;;;;;7.70;3.28;;;-1.60;96.70;;;;;;7360038;32;20126;-56
2024/01/09 15:41:16;;;;;;;6.65;3.03;;;-1.70;96.30;;;;;;7362071;32;20200;-58
2024/01/09 15:45:20;;;;;;;5.62;2.50;;;-1.70;97.70;;;;;;7362468;32;20126;-58
2024/01/09 15:49:22;;;;;;;6.35;3.08;;;-1.80;96.70;;;;;;7357451;32;20526;-58
2024/01/09 15:53:24;;;;;;;4.87;2.58;;;-1.80;98.20;;;;;;7354237;32;20725;-58
2024/01/09 15:57:26;;;;;;;5.03;2.28;;;-2.00;98.60;;;;;;7360102;32;20156;-55
2024/01/09 16:01:27;;;;;;;7.70;2.97;;;-2.00;98.30;;;;;;7363821;32;20206;-55
2024/01/09 16:05:31;;;;;;;7.18;2.75;;;-2.10;98.70;;;;;;7361714;32;20130;-56
2024/01/09 16:09:33;;;;;;;4.62;2.30;;;-2.10;99.90;;;;;;7363078;32;20126;-56
2024/01/09 16:13:36;;;;;;;6.60;2.80;;;-2.10;98.40;;;;;;7360098;32;20175;-56
2024/01/09 16:17:38;;;;;;;7.05;2.80;;;-2.10;99.90;;;;;;7363498;32;20126;-57
2024/01/09 16:21:40;;;;;;;8.27;3.50;;;-2.30;99.70;;;;;;7363415;32;20111;-56
2024/01/09 16:25:42;;;;;;;7.37;3.25;;;-2.20;99.90;;;;;;7360987;32;20107;-57
2024/01/09 16:29:44;;;;;;;6.00;2.45;;;-2.20;99.30;;;;;;7359664;32;20119;-57
2024/01/09 16:33:46;;;;;;;6.60;2.85;;;-2.30;99.70;;;;;;7358328;32;20103;-57
2024/01/09 16:37:48;;;;;;;6.55;2.90;;;-2.30;99.70;;;;;;7358310;32;20096;-56
2024/01/09 16:41:50;;;;;;;6.00;3.12;;;-2.30;99.90;;;;;;7364741;32;20770;-57
2024/01/09 16:45:52;;;;;;;6.00;3.15;;;-2.30;99.90;;;;;;7358778;32;20103;-56
2024/01/09 16:49:54;;;;;;;6.18;3.10;;;-2.40;99.90;;;;;;7363057;32;20818;-56
2024/01/09 16:53:56;;;;;;;6.50;3.00;;;-2.40;99.90;;;;;;7360499;32;20111;-56
2024/01/09 16:57:59;;;;;;;6.57;3.37;;;-2.40;99.90;;;;;;7362890;32;20279;-57
2024/01/09 17:02:02;;;;;;;5.90;3.20;;;-2.40;99.90;;;;;;7364874;32;20139;-57
2024/01/09 17:06:04;;;;;;;5.75;2.90;;;-2.40;99.90;;;;;;7366479;32;20121;-56
2024/01/09 17:10:06;;;;;;;8.63;2.83;;;-2.40;99.90;;;;;;7357015;32;20324;-55
2024/01/09 17:14:08;;;;;;;6.07;3.05;;;-2.40;99.90;;;;;;7359102;32;20111;-56
2024/01/09 17:18:10;;;;;;;16.60;7.43;;;-2.50;99.90;;;;;;7356007;32;20137;-56
2024/01/09 17:22:12;;;;;;;8.55;3.78;;;-2.40;99.90;;;;;;7359271;32;20108;-56
2024/01/09 17:26:14;;;;;;;5.53;2.65;;;-2.40;99.90;;;;;;7361608;32;20123;-57
2024/01/09 17:30:16;;;;;;;8.38;3.40;;;-2.40;99.90;;;;;;7360132;32;20210;-57
2024/01/09 17:34:17;;;;;;;8.02;3.17;;;-2.50;99.90;;;;;;7364135;32;20099;-57
2024/01/09 17:38:19;;;;;;;7.72;3.22;;;-2.40;99.90;;;;;;7363329;32;20170;-57
2024/01/09 17:42:21;;;;;;;6.82;3.17;;;-2.40;99.90;;;;;;7361522;32;20281;-56
2024/01/09 17:46:23;;;;;;;8.23;3.15;;;-2.40;99.90;;;;;;7360675;32;20121;-58
2024/01/09 17:50:24;;;;;;;7.18;3.50;;;-2.50;99.90;;;;;;7369397;32;20129;-57
2024/01/09 17:54:26;;;;;;;6.57;3.55;;;-2.50;99.90;;;;;;7361041;32;20201;-56
2024/01/09 17:58:28;;;;;;;7.12;3.40;;;-2.50;99.90;;;;;;7363919;32;20178;-57
2024/01/09 18:02:30;;;;;;;7.80;3.90;;;-2.50;99.90;;;;;;7361758;32;20107;-57
2024/01/09 18:06:39;;;;;;;9.48;4.43;;;-2.50;99.90;;;;;;7366178;32;20321;-56
2024/01/09 18:10:41;;;;;;;6.55;3.62;;;-2.50;99.90;;;;;;7361469;32;20149;-57
2024/01/09 18:14:43;;;;;;;7.90;3.87;;;-2.60;99.90;;;;;;7356500;32;20283;-57
2024/01/09 18:18:46;;;;;;;7.45;3.62;;;-2.60;99.90;;;;;;7359500;32;20161;-57
2024/01/09 18:22:48;;;;;;;10.23;3.85;;;-2.60;99.90;;;;;;7359819;32;20762;-58
2024/01/09 18:26:50;;;;;;;8.85;3.83;;;-2.60;99.90;;;;;;7358782;32;20153;-56
2024/01/09 18:30:56;;;;;;;9.15;3.42;;;-2.60;99.90;;;;;;7356728;32;20255;-56
2024/01/09 18:34:58;;;;;;;8.85;4.30;;;-2.70;99.90;;;;;;7359926;32;20155;-57
2024/01/09 18:39:00;;;;;;;8.45;3.78;;;-2.70;99.90;;;;;;7359356;32;20765;-58
2024/01/09 18:43:02;;;;;;;7.78;3.72;;;-2.80;99.90;;;;;;7361019;32;20543;-57
2024/01/09 18:47:03;;;;;;;10.15;4.25;;;-2.70;99.90;;;;;;7360751;32;20379;-57
2024/01/09 18:51:05;;;;;;;7.60;4.43;;;-2.80;99.90;;;;;;7365430;32;20163;-57
2024/01/09 18:55:07;;;;;;;8.55;3.83;;;-2.80;99.90;;;;;;7366120;32;20258;-57
2024/01/09 18:59:12;;;;;;;8.57;4.12;;;-2.90;99.90;;;;;;7353830;32;20211;-56
2024/01/09 19:03:14;;;;;;;8.88;3.97;;;-2.90;99.90;;;;;;7357269;32;20134;-57
2024/01/09 19:07:16;;;;;;;10.38;4.15;;;-2.90;99.90;;;;;;7355962;32;20238;-57
2024/01/09 19:11:19;;;;;;;7.80;4.43;;;-2.90;99.90;;;;;;7359713;32;20171;-55
2024/01/09 19:15:21;;;;;;;7.50;3.97;;;-2.90;99.90;;;;;;7358430;32;20286;-56
2024/01/09 19:19:23;;;;;;;10.38;4.60;;;-3.00;99.90;;;;;;7354906;32;20275;-65
2024/01/09 19:23:26;;;;;;;9.90;4.43;;;-3.10;99.90;;;;;;7356715;32;20248;-57
2024/01/09 19:27:28;;;;;;;9.70;4.50;;;-3.10;99.90;;;;;;7356542;32;20164;-55
2024/01/09 19:31:30;;;;;;;9.82;4.87;;;-3.10;99.90;;;;;;7365331;32;20152;-58
2024/01/09 19:35:32;;;;;;;9.30;4.03;;;-3.20;99.90;;;;;;7364784;32;20169;-57
2024/01/09 19:39:34;;;;;;;15.45;3.95;;;-3.20;99.90;;;;;;7357854;32;20694;-57
2024/01/09 19:43:36;;;;;;;9.20;4.15;;;-3.20;99.90;;;;;;7362930;32;20219;-58
2024/01/09 19:47:38;;;;;;;8.25;3.87;;;-3.20;99.90;;;;;;7362869;32;20688;-57
2024/01/09 19:51:41;;;;;;;10.50;4.25;;;-3.30;99.90;;;;;;7360648;32;20107;-57
2024/01/09 19:55:43;;;;;;;7.47;4.05;;;-3.20;99.90;;;;;;7355154;32;20111;-58
2024/01/09 19:59:45;;;;;;;7.85;4.35;;;-3.30;99.90;;;;;;7359981;32;20130;-57
2024/01/09 20:03:48;;;;;;;8.75;4.05;;;-3.40;99.90;;;;;;7362622;32;20233;-57
2024/01/09 20:07:49;;;;;;;8.43;4.18;;;-3.40;99.90;;;;;;7359385;32;20257;-58
2024/01/09 20:11:51;;;;;;;9.90;4.22;;;-3.40;99.90;;;;;;7355311;32;20165;-55
2024/01/09 20:15:53;;;;;;;9.55;4.72;;;-3.50;99.90;;;;;;7362298;32;20216;-56
2024/01/09 20:19:58;;;;;;;9.02;4.30;;;-3.50;99.90;;;;;;7358343;32;20151;-57
2024/01/09 20:24:04;;;;;;;9.52;4.37;;;-3.50;99.90;;;;;;7355595;32;20104;-58
2024/01/09 20:28:06;;;;;;;13.75;4.80;;;-3.60;99.90;;;;;;7360332;32;20123;-58
2024/01/09 20:32:08;;;;;;;10.35;4.37;;;-3.60;99.90;;;;;;7362734;32;20174;-58
2024/01/09 20:36:11;;;;;;;9.75;4.37;;;-3.60;99.90;;;;;;7355417;32;20216;-57
2024/01/09 20:40:13;;;;;;;9.98;4.78;;;-3.60;99.90;;;;;;7359598;32;20100;-57
2024/01/09 20:44:20;;;;;;;9.63;4.75;;;-3.80;99.90;;;;;;7363541;32;20373;-57
2024/01/09 20:48:22;;;;;;;10.95;4.53;;;-3.80;99.90;;;;;;7354906;32;20192;-56
2024/01/09 20:52:23;;;;;;;10.80;4.87;;;-3.80;99.90;;;;;;7360007;32;20303;-57
2024/01/09 20:56:25;;;;;;;12.15;4.97;;;-3.80;99.90;;;;;;7355436;32;20195;-56
2024/01/09 21:00:27;;;;;;;9.52;4.68;;;-3.90;99.90;;;;;;7355153;32;20173;-56